sensor_id;sensor_type;location;lat;lon;timestamp;P1;durP1;ratioP1;P2;durP2;ratioP2
40058;SDS011;25763;49.972;8.568;2022-08-06T00:02:07;10.52;;;9.90;;
40058;SDS011;25763;49.972;8.568;2022-08-06T00:04:33;9.90;;;9.30;;
40058;SDS011;25763;49.972;8.568;2022-08-06T00:06:58;10.00;;;9.20;;
40058;SDS011;25763;49.972;8.568;2022-08-06T00:09:24;8.38;;;7.88;;
40058;SDS011;25763;49.972;8.568;2022-08-06T00:11:49;8.90;;;8.30;;
40058;SDS011;25763;49.972;8.568;2022-08-06T00:14:15;9.05;;;8.45;;
40058;SDS011;25763;49.972;8.568;2022-08-06T00:16:40;10.02;;;9.43;;
40058;SDS011;25763;49.972;8.568;2022-08-06T00:19:06;9.70;;;9.10;;
40058;SDS011;25763;49.972;8.568;2022-08-06T00:21:31;9.07;;;8.48;;
40058;SDS011;25763;49.972;8.568;2022-08-06T00:23:57;15.32;;;14.48;;
40058;SDS011;25763;49.972;8.568;2022-08-06T00:26:22;9.63;;;9.02;;
40058;SDS011;25763;49.972;8.568;2022-08-06T00:28:49;25.10;;;23.77;;
40058;SDS011;25763;49.972;8.568;2022-08-06T00:31:15;25.63;;;24.27;;
40058;SDS011;25763;49.972;8.568;2022-08-06T00:33:40;30.55;;;28.92;;
40058;SDS011;25763;49.972;8.568;2022-08-06T00:36:06;28.42;;;26.92;;
40058;SDS011;25763;49.972;8.568;2022-08-06T00:38:32;15.30;;;14.45;;
40058;SDS011;25763;49.972;8.568;2022-08-06T00:40:57;18.80;;;17.80;;
40058;SDS011;25763;49.972;8.568;2022-08-06T00:43:23;18.88;;;17.88;;
40058;SDS011;25763;49.972;8.568;2022-08-06T00:45:48;22.55;;;21.35;;
40058;SDS011;25763;49.972;8.568;2022-08-06T00:48:14;28.55;;;27.05;;
40058;SDS011;25763;49.972;8.568;2022-08-06T00:50:39;21.58;;;20.42;;
40058;SDS011;25763;49.972;8.568;2022-08-06T00:53:05;22.02;;;20.83;;
40058;SDS011;25763;49.972;8.568;2022-08-06T00:55:30;25.92;;;24.52;;
40058;SDS011;25763;49.972;8.568;2022-08-06T00:57:56;25.20;;;23.83;;
40058;SDS011;25763;49.972;8.568;2022-08-06T01:00:22;20.92;;;19.77;;
40058;SDS011;25763;49.972;8.568;2022-08-06T01:02:47;22.80;;;21.58;;
40058;SDS011;25763;49.972;8.568;2022-08-06T01:05:13;25.02;;;23.70;;
40058;SDS011;25763;49.972;8.568;2022-08-06T01:07:38;20.92;;;19.80;;
40058;SDS011;25763;49.972;8.568;2022-08-06T01:10:04;23.42;;;22.17;;
40058;SDS011;25763;49.972;8.568;2022-08-06T01:12:29;26.25;;;24.88;;
40058;SDS011;25763;49.972;8.568;2022-08-06T01:14:55;31.73;;;30.08;;
40058;SDS011;25763;49.972;8.568;2022-08-06T01:17:28;31.13;;;29.50;;
40058;SDS011;25763;49.972;8.568;2022-08-06T01:20:22;23.13;;;21.90;;
40058;SDS011;25763;49.972;8.568;2022-08-06T01:23:06;19.45;;;17.98;;
40058;SDS011;25763;49.972;8.568;2022-08-06T01:28:25;20.65;;;19.55;;
40058;SDS011;25763;49.972;8.568;2022-08-06T01:30:57;18.52;;;17.52;;
40058;SDS011;25763;49.972;8.568;2022-08-06T01:33:31;23.30;;;21.85;;
40058;SDS011;25763;49.972;8.568;2022-08-06T01:36:04;17.52;;;16.55;;
40058;SDS011;25763;49.972;8.568;2022-08-06T01:41:00;13.45;;;12.65;;
40058;SDS011;25763;49.972;8.568;2022-08-06T01:43:30;12.82;;;12.10;;
40058;SDS011;25763;49.972;8.568;2022-08-06T01:45:57;14.50;;;13.68;;
40058;SDS011;25763;49.972;8.568;2022-08-06T01:48:24;15.30;;;14.45;;
40058;SDS011;25763;49.972;8.568;2022-08-06T01:50:52;14.10;;;13.30;;
40058;SDS011;25763;49.972;8.568;2022-08-06T01:53:22;16.05;;;15.15;;
40058;SDS011;25763;49.972;8.568;2022-08-06T01:55:53;11.80;;;11.05;;
40058;SDS011;25763;49.972;8.568;2022-08-06T01:58:27;12.95;;;12.05;;
40058;SDS011;25763;49.972;8.568;2022-08-06T02:00:57;11.15;;;10.45;;
40058;SDS011;25763;49.972;8.568;2022-08-06T02:03:26;8.85;;;8.25;;
40058;SDS011;25763;49.972;8.568;2022-08-06T02:05:55;10.02;;;9.43;;
40058;SDS011;25763;49.972;8.568;2022-08-06T02:08:23;10.13;;;9.52;;
40058;SDS011;25763;49.972;8.568;2022-08-06T02:10:51;10.63;;;10.00;;
40058;SDS011;25763;49.972;8.568;2022-08-06T02:13:19;10.00;;;9.35;;
40058;SDS011;25763;49.972;8.568;2022-08-06T02:15:47;10.98;;;10.27;;
40058;SDS011;25763;49.972;8.568;2022-08-06T02:18:15;10.13;;;9.52;;
40058;SDS011;25763;49.972;8.568;2022-08-06T02:20:43;11.13;;;10.43;;
40058;SDS011;25763;49.972;8.568;2022-08-06T02:23:16;11.15;;;10.48;;
40058;SDS011;25763;49.972;8.568;2022-08-06T02:25:44;10.20;;;9.60;;
40058;SDS011;25763;49.972;8.568;2022-08-06T02:28:11;10.45;;;9.75;;
40058;SDS011;25763;49.972;8.568;2022-08-06T02:30:40;10.30;;;9.70;;
40058;SDS011;25763;49.972;8.568;2022-08-06T02:33:08;11.02;;;10.38;;
40058;SDS011;25763;49.972;8.568;2022-08-06T02:35:36;10.82;;;10.18;;
40058;SDS011;25763;49.972;8.568;2022-08-06T02:38:07;10.07;;;9.47;;
40058;SDS011;25763;49.972;8.568;2022-08-06T02:40:40;10.75;;;10.13;;
40058;SDS011;25763;49.972;8.568;2022-08-06T02:43:14;9.80;;;9.20;;
40058;SDS011;25763;49.972;8.568;2022-08-06T02:45:43;11.27;;;10.57;;
40058;SDS011;25763;49.972;8.568;2022-08-06T02:48:18;10.27;;;9.68;;
40058;SDS011;25763;49.972;8.568;2022-08-06T02:50:48;10.05;;;9.45;;
40058;SDS011;25763;49.972;8.568;2022-08-06T02:53:25;11.02;;;10.35;;
40058;SDS011;25763;49.972;8.568;2022-08-06T02:55:55;11.75;;;11.05;;
40058;SDS011;25763;49.972;8.568;2022-08-06T02:58:44;10.88;;;10.23;;
40058;SDS011;25763;49.972;8.568;2022-08-06T03:01:12;11.02;;;10.38;;
40058;SDS011;25763;49.972;8.568;2022-08-06T03:03:41;11.95;;;11.25;;
40058;SDS011;25763;49.972;8.568;2022-08-06T03:06:09;11.35;;;10.65;;
40058;SDS011;25763;49.972;8.568;2022-08-06T03:08:37;11.73;;;11.02;;
40058;SDS011;25763;49.972;8.568;2022-08-06T03:11:04;11.82;;;11.13;;
40058;SDS011;25763;49.972;8.568;2022-08-06T03:13:31;12.20;;;11.50;;
40058;SDS011;25763;49.972;8.568;2022-08-06T03:15:58;10.68;;;10.05;;
40058;SDS011;25763;49.972;8.568;2022-08-06T03:18:24;11.73;;;11.00;;
40058;SDS011;25763;49.972;8.568;2022-08-06T03:20:51;10.45;;;9.80;;
40058;SDS011;25763;49.972;8.568;2022-08-06T03:23:17;12.07;;;11.38;;
40058;SDS011;25763;49.972;8.568;2022-08-06T03:25:44;11.38;;;10.68;;
40058;SDS011;25763;49.972;8.568;2022-08-06T03:28:11;10.23;;;9.63;;
40058;SDS011;25763;49.972;8.568;2022-08-06T03:30:38;10.90;;;10.25;;
40058;SDS011;25763;49.972;8.568;2022-08-06T03:33:07;9.20;;;8.60;;
40058;SDS011;25763;49.972;8.568;2022-08-06T03:35:34;8.87;;;8.27;;
40058;SDS011;25763;49.972;8.568;2022-08-06T03:38:00;9.43;;;8.82;;
40058;SDS011;25763;49.972;8.568;2022-08-06T03:40:26;10.27;;;9.68;;
40058;SDS011;25763;49.972;8.568;2022-08-06T03:42:54;10.25;;;9.65;;
40058;SDS011;25763;49.972;8.568;2022-08-06T03:45:19;9.63;;;9.02;;
40058;SDS011;25763;49.972;8.568;2022-08-06T03:47:46;10.57;;;9.93;;
40058;SDS011;25763;49.972;8.568;2022-08-06T03:50:18;9.32;;;8.73;;
40058;SDS011;25763;49.972;8.568;2022-08-06T03:52:47;10.43;;;9.73;;
40058;SDS011;25763;49.972;8.568;2022-08-06T03:55:22;10.00;;;9.40;;
40058;SDS011;25763;49.972;8.568;2022-08-06T03:57:50;9.75;;;9.15;;
40058;SDS011;25763;49.972;8.568;2022-08-06T04:00:18;9.32;;;8.73;;
40058;SDS011;25763;49.972;8.568;2022-08-06T04:02:49;8.43;;;7.90;;
40058;SDS011;25763;49.972;8.568;2022-08-06T04:05:20;8.38;;;7.88;;
40058;SDS011;25763;49.972;8.568;2022-08-06T04:07:51;8.15;;;7.65;;
40058;SDS011;25763;49.972;8.568;2022-08-06T04:10:18;9.95;;;9.30;;
40058;SDS011;25763;49.972;8.568;2022-08-06T04:12:45;10.85;;;10.20;;
40058;SDS011;25763;49.972;8.568;2022-08-06T04:15:14;8.93;;;8.32;;
40058;SDS011;25763;49.972;8.568;2022-08-06T04:17:40;9.43;;;8.82;;
40058;SDS011;25763;49.972;8.568;2022-08-06T04:20:07;9.20;;;8.60;;
40058;SDS011;25763;49.972;8.568;2022-08-06T04:22:34;8.40;;;7.88;;
40058;SDS011;25763;49.972;8.568;2022-08-06T04:25:00;9.85;;;9.25;;
40058;SDS011;25763;49.972;8.568;2022-08-06T04:27:26;10.90;;;10.23;;
40058;SDS011;25763;49.972;8.568;2022-08-06T04:29:52;11.10;;;10.40;;
40058;SDS011;25763;49.972;8.568;2022-08-06T04:32:19;9.77;;;9.13;;
40058;SDS011;25763;49.972;8.568;2022-08-06T04:34:47;9.60;;;9.00;;
40058;SDS011;25763;49.972;8.568;2022-08-06T04:37:13;9.48;;;8.88;;
40058;SDS011;25763;49.972;8.568;2022-08-06T04:39:39;9.50;;;8.90;;
40058;SDS011;25763;49.972;8.568;2022-08-06T04:42:05;9.77;;;9.18;;
40058;SDS011;25763;49.972;8.568;2022-08-06T04:44:32;8.95;;;8.30;;
40058;SDS011;25763;49.972;8.568;2022-08-06T04:46:58;8.70;;;8.18;;
40058;SDS011;25763;49.972;8.568;2022-08-06T04:49:24;9.20;;;8.60;;
40058;SDS011;25763;49.972;8.568;2022-08-06T04:51:49;9.55;;;8.95;;
40058;SDS011;25763;49.972;8.568;2022-08-06T04:54:15;7.63;;;7.13;;
40058;SDS011;25763;49.972;8.568;2022-08-06T04:56:41;7.93;;;7.43;;
40058;SDS011;25763;49.972;8.568;2022-08-06T04:59:08;10.50;;;9.90;;
40058;SDS011;25763;49.972;8.568;2022-08-06T05:01:34;8.48;;;7.95;;
40058;SDS011;25763;49.972;8.568;2022-08-06T05:04:00;8.07;;;7.57;;
40058;SDS011;25763;49.972;8.568;2022-08-06T05:06:46;9.27;;;8.68;;
40058;SDS011;25763;49.972;8.568;2022-08-06T05:09:19;10.07;;;9.48;;
40058;SDS011;25763;49.972;8.568;2022-08-06T05:11:48;8.23;;;7.72;;
40058;SDS011;25763;49.972;8.568;2022-08-06T05:14:27;8.88;;;8.32;;
40058;SDS011;25763;49.972;8.568;2022-08-06T05:16:55;9.90;;;9.07;;
40058;SDS011;25763;49.972;8.568;2022-08-06T05:19:24;8.50;;;8.00;;
40058;SDS011;25763;49.972;8.568;2022-08-06T05:21:53;10.05;;;9.45;;
40058;SDS011;25763;49.972;8.568;2022-08-06T05:24:21;10.52;;;9.93;;
40058;SDS011;25763;49.972;8.568;2022-08-06T05:26:47;8.30;;;7.80;;
40058;SDS011;25763;49.972;8.568;2022-08-06T05:29:17;11.15;;;10.48;;
40058;SDS011;25763;49.972;8.568;2022-08-06T05:31:44;8.25;;;7.75;;
40058;SDS011;25763;49.972;8.568;2022-08-06T05:34:10;9.90;;;9.30;;
40058;SDS011;25763;49.972;8.568;2022-08-06T05:36:36;10.25;;;9.35;;
40058;SDS011;25763;49.972;8.568;2022-08-06T05:39:03;10.23;;;9.63;;
40058;SDS011;25763;49.972;8.568;2022-08-06T05:41:28;11.20;;;10.50;;
40058;SDS011;25763;49.972;8.568;2022-08-06T05:43:54;10.70;;;10.05;;
40058;SDS011;25763;49.972;8.568;2022-08-06T05:46:20;8.27;;;7.78;;
40058;SDS011;25763;49.972;8.568;2022-08-06T05:49:03;11.27;;;10.57;;
40058;SDS011;25763;49.972;8.568;2022-08-06T05:51:46;11.05;;;10.38;;
40058;SDS011;25763;49.972;8.568;2022-08-06T05:54:21;10.02;;;9.43;;
40058;SDS011;25763;49.972;8.568;2022-08-06T05:56:54;8.98;;;8.38;;
40058;SDS011;25763;49.972;8.568;2022-08-06T05:59:28;9.55;;;8.95;;
40058;SDS011;25763;49.972;8.568;2022-08-06T06:01:56;8.88;;;8.32;;
40058;SDS011;25763;49.972;8.568;2022-08-06T06:04:22;9.50;;;8.90;;
40058;SDS011;25763;49.972;8.568;2022-08-06T06:06:49;10.18;;;9.57;;
40058;SDS011;25763;49.972;8.568;2022-08-06T06:09:15;8.40;;;7.90;;
40058;SDS011;25763;49.972;8.568;2022-08-06T06:11:41;8.18;;;7.68;;
40058;SDS011;25763;49.972;8.568;2022-08-06T06:14:19;9.40;;;8.80;;
40058;SDS011;25763;49.972;8.568;2022-08-06T06:16:58;9.70;;;9.10;;
40058;SDS011;25763;49.972;8.568;2022-08-06T06:22:17;9.35;;;8.75;;
40058;SDS011;25763;49.972;8.568;2022-08-06T06:25:08;9.60;;;9.00;;
40058;SDS011;25763;49.972;8.568;2022-08-06T06:30:42;8.23;;;7.63;;
40058;SDS011;25763;49.972;8.568;2022-08-06T06:33:14;8.32;;;7.82;;
40058;SDS011;25763;49.972;8.568;2022-08-06T06:35:54;10.68;;;10.02;;
40058;SDS011;25763;49.972;8.568;2022-08-06T06:38:36;10.00;;;9.40;;
40058;SDS011;25763;49.972;8.568;2022-08-06T06:41:32;9.18;;;8.57;;
40058;SDS011;25763;49.972;8.568;2022-08-06T06:44:08;6.32;;;5.93;;
40058;SDS011;25763;49.972;8.568;2022-08-06T06:49:30;5.60;;;5.20;;
40058;SDS011;25763;49.972;8.568;2022-08-06T06:52:14;7.18;;;6.68;;
40058;SDS011;25763;49.972;8.568;2022-08-06T06:54:44;6.63;;;6.03;;
40058;SDS011;25763;49.972;8.568;2022-08-06T06:57:15;7.30;;;6.80;;
40058;SDS011;25763;49.972;8.568;2022-08-06T07:02:14;7.05;;;6.55;;
40058;SDS011;25763;49.972;8.568;2022-08-06T07:04:45;7.00;;;6.50;;
40058;SDS011;25763;49.972;8.568;2022-08-06T07:07:14;7.35;;;6.85;;
40058;SDS011;25763;49.972;8.568;2022-08-06T07:09:41;6.55;;;6.10;;
40058;SDS011;25763;49.972;8.568;2022-08-06T07:12:09;5.45;;;5.05;;
40058;SDS011;25763;49.972;8.568;2022-08-06T07:14:36;4.90;;;4.50;;
40058;SDS011;25763;49.972;8.568;2022-08-06T07:17:03;4.90;;;4.50;;
40058;SDS011;25763;49.972;8.568;2022-08-06T07:19:30;6.07;;;5.43;;
40058;SDS011;25763;49.972;8.568;2022-08-06T07:21:56;5.65;;;5.25;;
40058;SDS011;25763;49.972;8.568;2022-08-06T07:24:23;5.47;;;5.03;;
40058;SDS011;25763;49.972;8.568;2022-08-06T07:26:50;5.70;;;5.30;;
40058;SDS011;25763;49.972;8.568;2022-08-06T07:29:18;7.53;;;7.03;;
40058;SDS011;25763;49.972;8.568;2022-08-06T07:31:45;7.68;;;7.18;;
40058;SDS011;25763;49.972;8.568;2022-08-06T07:34:12;7.10;;;6.60;;
40058;SDS011;25763;49.972;8.568;2022-08-06T07:36:42;5.88;;;5.47;;
40058;SDS011;25763;49.972;8.568;2022-08-06T07:39:21;7.13;;;6.63;;
40058;SDS011;25763;49.972;8.568;2022-08-06T07:41:49;6.55;;;6.07;;
40058;SDS011;25763;49.972;8.568;2022-08-06T07:44:17;9.18;;;8.55;;
40058;SDS011;25763;49.972;8.568;2022-08-06T07:46:45;10.85;;;10.20;;
40058;SDS011;25763;49.972;8.568;2022-08-06T07:49:15;9.60;;;9.00;;
40058;SDS011;25763;49.972;8.568;2022-08-06T07:51:43;11.18;;;10.48;;
40058;SDS011;25763;49.972;8.568;2022-08-06T07:54:10;10.30;;;9.70;;
40058;SDS011;25763;49.972;8.568;2022-08-06T07:56:37;9.63;;;9.02;;
40058;SDS011;25763;49.972;8.568;2022-08-06T07:59:05;10.25;;;9.65;;
40058;SDS011;25763;49.972;8.568;2022-08-06T08:01:32;10.48;;;9.88;;
40058;SDS011;25763;49.972;8.568;2022-08-06T08:03:58;11.93;;;11.23;;
40058;SDS011;25763;49.972;8.568;2022-08-06T08:06:43;11.13;;;10.45;;
40058;SDS011;25763;49.972;8.568;2022-08-06T08:09:09;14.48;;;13.68;;
40058;SDS011;25763;49.972;8.568;2022-08-06T08:11:39;12.25;;;11.52;;
40058;SDS011;25763;49.972;8.568;2022-08-06T08:14:08;17.40;;;16.45;;
40058;SDS011;25763;49.972;8.568;2022-08-06T08:16:35;16.48;;;15.57;;
40058;SDS011;25763;49.972;8.568;2022-08-06T08:19:02;14.82;;;14.00;;
40058;SDS011;25763;49.972;8.568;2022-08-06T08:21:28;11.48;;;10.77;;
40058;SDS011;25763;49.972;8.568;2022-08-06T08:23:54;10.63;;;10.00;;
40058;SDS011;25763;49.972;8.568;2022-08-06T08:26:20;14.75;;;13.93;;
40058;SDS011;25763;49.972;8.568;2022-08-06T08:28:46;26.63;;;25.23;;
40058;SDS011;25763;49.972;8.568;2022-08-06T08:31:12;32.20;;;30.45;;
40058;SDS011;25763;49.972;8.568;2022-08-06T08:33:38;21.55;;;20.40;;
40058;SDS011;25763;49.972;8.568;2022-08-06T08:36:05;24.20;;;22.90;;
40058;SDS011;25763;49.972;8.568;2022-08-06T08:38:31;17.02;;;16.10;;
40058;SDS011;25763;49.972;8.568;2022-08-06T08:40:59;21.10;;;19.98;;
40058;SDS011;25763;49.972;8.568;2022-08-06T08:43:30;21.63;;;20.45;;
40058;SDS011;25763;49.972;8.568;2022-08-06T08:46:01;22.35;;;21.15;;
40058;SDS011;25763;49.972;8.568;2022-08-06T08:48:27;20.17;;;19.08;;
40058;SDS011;25763;49.972;8.568;2022-08-06T08:50:56;17.58;;;16.60;;
40058;SDS011;25763;49.972;8.568;2022-08-06T08:53:34;29.25;;;27.63;;
40058;SDS011;25763;49.972;8.568;2022-08-06T08:56:02;33.50;;;31.77;;
40058;SDS011;25763;49.972;8.568;2022-08-06T08:58:29;31.33;;;29.73;;
40058;SDS011;25763;49.972;8.568;2022-08-06T09:00:56;22.27;;;20.65;;
40058;SDS011;25763;49.972;8.568;2022-08-06T09:03:22;33.83;;;32.10;;
40058;SDS011;25763;49.972;8.568;2022-08-06T09:05:48;32.55;;;30.85;;
40058;SDS011;25763;49.972;8.568;2022-08-06T09:08:14;42.90;;;40.75;;
40058;SDS011;25763;49.972;8.568;2022-08-06T09:10:41;44.90;;;42.65;;
40058;SDS011;25763;49.972;8.568;2022-08-06T09:13:06;40.35;;;38.28;;
40058;SDS011;25763;49.972;8.568;2022-08-06T09:15:31;48.60;;;46.15;;
40058;SDS011;25763;49.972;8.568;2022-08-06T09:17:57;49.70;;;47.20;;
40058;SDS011;25763;49.972;8.568;2022-08-06T09:20:22;43.70;;;41.47;;
40058;SDS011;25763;49.972;8.568;2022-08-06T09:22:47;45.95;;;43.65;;
40058;SDS011;25763;49.972;8.568;2022-08-06T09:28:00;51.35;;;48.75;;
40058;SDS011;25763;49.972;8.568;2022-08-06T09:30:25;49.13;;;46.63;;
40058;SDS011;25763;49.972;8.568;2022-08-06T09:32:52;48.75;;;46.25;;
40058;SDS011;25763;49.972;8.568;2022-08-06T09:35:21;49.88;;;47.38;;
40058;SDS011;25763;49.972;8.568;2022-08-06T09:37:49;53.03;;;50.38;;
40058;SDS011;25763;49.972;8.568;2022-08-06T09:40:18;51.65;;;49.05;;
40058;SDS011;25763;49.972;8.568;2022-08-06T09:42:48;34.55;;;32.78;;
40058;SDS011;25763;49.972;8.568;2022-08-06T09:45:16;32.70;;;31.00;;
40058;SDS011;25763;49.972;8.568;2022-08-06T09:47:44;49.25;;;46.75;;
40058;SDS011;25763;49.972;8.568;2022-08-06T09:50:10;48.70;;;46.25;;
40058;SDS011;25763;49.972;8.568;2022-08-06T09:52:36;50.03;;;47.50;;
40058;SDS011;25763;49.972;8.568;2022-08-06T09:55:01;48.13;;;45.72;;
40058;SDS011;25763;49.972;8.568;2022-08-06T09:57:40;46.13;;;43.80;;
40058;SDS011;25763;49.972;8.568;2022-08-06T10:00:10;40.00;;;37.97;;
40058;SDS011;25763;49.972;8.568;2022-08-06T10:02:36;47.63;;;45.22;;
40058;SDS011;25763;49.972;8.568;2022-08-06T10:05:09;47.45;;;45.05;;
40058;SDS011;25763;49.972;8.568;2022-08-06T10:07:36;42.38;;;40.22;;
40058;SDS011;25763;49.972;8.568;2022-08-06T10:10:02;36.70;;;34.80;;
40058;SDS011;25763;49.972;8.568;2022-08-06T10:12:29;21.95;;;20.75;;
40058;SDS011;25763;49.972;8.568;2022-08-06T10:14:55;25.58;;;24.23;;
40058;SDS011;25763;49.972;8.568;2022-08-06T10:17:22;35.78;;;33.85;;
40058;SDS011;25763;49.972;8.568;2022-08-06T10:20:03;26.65;;;25.25;;
40058;SDS011;25763;49.972;8.568;2022-08-06T10:22:30;26.58;;;25.17;;
40058;SDS011;25763;49.972;8.568;2022-08-06T10:24:55;23.45;;;22.23;;
40058;SDS011;25763;49.972;8.568;2022-08-06T10:27:33;16.73;;;15.82;;
40058;SDS011;25763;49.972;8.568;2022-08-06T10:30:04;15.60;;;14.70;;
40058;SDS011;25763;49.972;8.568;2022-08-06T10:32:48;22.63;;;21.42;;
40058;SDS011;25763;49.972;8.568;2022-08-06T10:35:19;35.03;;;33.22;;
40058;SDS011;25763;49.972;8.568;2022-08-06T10:37:48;23.38;;;22.13;;
40058;SDS011;25763;49.972;8.568;2022-08-06T10:40:18;31.73;;;30.13;;
40058;SDS011;25763;49.972;8.568;2022-08-06T10:42:45;16.02;;;15.13;;
40058;SDS011;25763;49.972;8.568;2022-08-06T10:45:11;36.17;;;34.33;;
40058;SDS011;25763;49.972;8.568;2022-08-06T10:47:37;16.63;;;15.63;;
40058;SDS011;25763;49.972;8.568;2022-08-06T10:50:04;19.90;;;18.80;;
40058;SDS011;25763;49.972;8.568;2022-08-06T10:52:31;19.45;;;18.40;;
40058;SDS011;25763;49.972;8.568;2022-08-06T10:54:56;32.90;;;31.20;;
40058;SDS011;25763;49.972;8.568;2022-08-06T10:57:24;16.08;;;15.18;;
40058;SDS011;25763;49.972;8.568;2022-08-06T10:59:52;20.83;;;19.73;;
40058;SDS011;25763;49.972;8.568;2022-08-06T11:13:14;24.95;;;23.65;;
40058;SDS011;25763;49.972;8.568;2022-08-06T11:15:50;47.13;;;44.72;;
40058;SDS011;25763;49.972;8.568;2022-08-06T11:18:17;51.50;;;48.88;;
40058;SDS011;25763;49.972;8.568;2022-08-06T11:20:43;51.20;;;48.63;;
40058;SDS011;25763;49.972;8.568;2022-08-06T11:25:42;42.10;;;39.97;;
40058;SDS011;25763;49.972;8.568;2022-08-06T11:30:40;15.37;;;14.50;;
40058;SDS011;25763;49.972;8.568;2022-08-06T11:33:19;26.35;;;24.98;;
40058;SDS011;25763;49.972;8.568;2022-08-06T11:35:53;43.08;;;40.90;;
40058;SDS011;25763;49.972;8.568;2022-08-06T11:44:10;57.67;;;54.78;;
40058;SDS011;25763;49.972;8.568;2022-08-06T11:46:39;52.35;;;49.70;;
40058;SDS011;25763;49.972;8.568;2022-08-06T11:51:42;54.95;;;52.20;;
40058;SDS011;25763;49.972;8.568;2022-08-06T11:54:18;67.65;;;64.30;;
40058;SDS011;25763;49.972;8.568;2022-08-06T11:59:42;67.47;;;64.13;;
40058;SDS011;25763;49.972;8.568;2022-08-06T12:02:09;64.22;;;61.05;;
40058;SDS011;25763;49.972;8.568;2022-08-06T12:07:18;75.75;;;72.00;;
40058;SDS011;25763;49.972;8.568;2022-08-06T12:09:57;82.50;;;78.45;;
40058;SDS011;25763;49.972;8.568;2022-08-06T12:14:52;71.32;;;67.78;;
40058;SDS011;25763;49.972;8.568;2022-08-06T12:17:19;67.00;;;63.65;;
40058;SDS011;25763;49.972;8.568;2022-08-06T12:19:49;83.95;;;79.85;;
40058;SDS011;25763;49.972;8.568;2022-08-06T12:22:17;74.57;;;70.88;;
40058;SDS011;25763;49.972;8.568;2022-08-06T12:24:45;64.75;;;61.53;;
40058;SDS011;25763;49.972;8.568;2022-08-06T12:27:14;75.53;;;71.78;;
40058;SDS011;25763;49.972;8.568;2022-08-06T12:29:40;77.40;;;73.60;;
40058;SDS011;25763;49.972;8.568;2022-08-06T12:32:19;69.78;;;66.30;;
40058;SDS011;25763;49.972;8.568;2022-08-06T12:34:48;71.38;;;67.82;;
40058;SDS011;25763;49.972;8.568;2022-08-06T12:37:14;79.50;;;75.60;;
40058;SDS011;25763;49.972;8.568;2022-08-06T12:39:40;82.40;;;78.30;;
40058;SDS011;25763;49.972;8.568;2022-08-06T12:42:25;108.35;;;103.05;;
40058;SDS011;25763;49.972;8.568;2022-08-06T12:44:51;84.90;;;80.72;;
40058;SDS011;25763;49.972;8.568;2022-08-06T12:47:18;83.90;;;79.80;;
40058;SDS011;25763;49.972;8.568;2022-08-06T12:49:44;104.03;;;98.90;;
40058;SDS011;25763;49.972;8.568;2022-08-06T12:52:20;105.43;;;100.25;;
40058;SDS011;25763;49.972;8.568;2022-08-06T12:54:46;108.57;;;103.25;;
40058;SDS011;25763;49.972;8.568;2022-08-06T12:57:22;90.07;;;85.65;;
40058;SDS011;25763;49.972;8.568;2022-08-06T12:59:49;71.53;;;67.97;;
40058;SDS011;25763;49.972;8.568;2022-08-06T13:02:16;74.40;;;70.70;;
40058;SDS011;25763;49.972;8.568;2022-08-06T13:04:45;79.78;;;75.85;;
40058;SDS011;25763;49.972;8.568;2022-08-06T13:07:13;73.55;;;69.88;;
40058;SDS011;25763;49.972;8.568;2022-08-06T13:09:40;63.50;;;60.35;;
40058;SDS011;25763;49.972;8.568;2022-08-06T13:12:17;84.95;;;80.72;;
40058;SDS011;25763;49.972;8.568;2022-08-06T13:14:51;82.35;;;78.28;;
40058;SDS011;25763;49.972;8.568;2022-08-06T13:17:18;114.45;;;108.85;;
40058;SDS011;25763;49.972;8.568;2022-08-06T13:22:22;84.70;;;80.47;;
40058;SDS011;25763;49.972;8.568;2022-08-06T13:24:48;106.85;;;101.60;;
40058;SDS011;25763;49.972;8.568;2022-08-06T13:27:33;92.47;;;87.93;;
40058;SDS011;25763;49.972;8.568;2022-08-06T13:30:02;151.80;;;144.27;;
40058;SDS011;25763;49.972;8.568;2022-08-06T13:32:30;148.00;;;140.68;;
40058;SDS011;25763;49.972;8.568;2022-08-06T13:34:56;154.10;;;146.50;;
40058;SDS011;25763;49.972;8.568;2022-08-06T13:40:11;136.23;;;129.55;;
40058;SDS011;25763;49.972;8.568;2022-08-06T13:42:53;141.65;;;134.65;;
40058;SDS011;25763;49.972;8.568;2022-08-06T13:45:21;140.70;;;133.80;;
40058;SDS011;25763;49.972;8.568;2022-08-06T13:47:48;190.85;;;181.57;;
40058;SDS011;25763;49.972;8.568;2022-08-06T13:50:18;182.38;;;173.40;;
40058;SDS011;25763;49.972;8.568;2022-08-06T13:52:44;142.70;;;135.65;;
40058;SDS011;25763;49.972;8.568;2022-08-06T13:55:10;138.00;;;131.25;;
40058;SDS011;25763;49.972;8.568;2022-08-06T13:57:36;151.05;;;143.60;;
40058;SDS011;25763;49.972;8.568;2022-08-06T14:00:05;153.35;;;145.82;;
40058;SDS011;25763;49.972;8.568;2022-08-06T14:02:34;169.98;;;161.60;;
40058;SDS011;25763;49.972;8.568;2022-08-06T14:04:59;181.23;;;172.25;;
40058;SDS011;25763;49.972;8.568;2022-08-06T14:07:25;156.55;;;148.82;;
40058;SDS011;25763;49.972;8.568;2022-08-06T14:09:50;145.15;;;138.00;;
40058;SDS011;25763;49.972;8.568;2022-08-06T14:12:15;143.48;;;136.43;;
40058;SDS011;25763;49.972;8.568;2022-08-06T14:14:41;183.25;;;174.25;;
40058;SDS011;25763;49.972;8.568;2022-08-06T14:17:06;174.75;;;166.20;;
40058;SDS011;25763;49.972;8.568;2022-08-06T14:19:31;214.30;;;203.85;;
40058;SDS011;25763;49.972;8.568;2022-08-06T14:21:57;186.48;;;177.35;;
40058;SDS011;25763;49.972;8.568;2022-08-06T14:24:22;175.63;;;167.00;;
40058;SDS011;25763;49.972;8.568;2022-08-06T14:26:48;211.88;;;201.52;;
40058;SDS011;25763;49.972;8.568;2022-08-06T14:29:13;196.32;;;186.70;;
40058;SDS011;25763;49.972;8.568;2022-08-06T14:31:38;211.63;;;201.30;;
40058;SDS011;25763;49.972;8.568;2022-08-06T14:34:04;201.55;;;191.70;;
40058;SDS011;25763;49.972;8.568;2022-08-06T14:36:29;192.40;;;182.95;;
40058;SDS011;25763;49.972;8.568;2022-08-06T14:38:55;205.80;;;195.70;;
40058;SDS011;25763;49.972;8.568;2022-08-06T14:41:21;220.88;;;210.10;;
40058;SDS011;25763;49.972;8.568;2022-08-06T14:44:05;224.68;;;213.70;;
40058;SDS011;25763;49.972;8.568;2022-08-06T14:46:49;213.38;;;202.98;;
40058;SDS011;25763;49.972;8.568;2022-08-06T14:49:15;204.38;;;194.43;;
40058;SDS011;25763;49.972;8.568;2022-08-06T14:51:40;189.77;;;180.45;;
40058;SDS011;25763;49.972;8.568;2022-08-06T14:54:06;187.20;;;177.98;;
40058;SDS011;25763;49.972;8.568;2022-08-06T14:56:31;189.65;;;180.35;;
40058;SDS011;25763;49.972;8.568;2022-08-06T14:58:56;193.45;;;183.95;;
40058;SDS011;25763;49.972;8.568;2022-08-06T15:01:22;197.70;;;188.02;;
40058;SDS011;25763;49.972;8.568;2022-08-06T15:03:47;187.75;;;178.52;;
40058;SDS011;25763;49.972;8.568;2022-08-06T15:06:12;163.90;;;155.80;;
40058;SDS011;25763;49.972;8.568;2022-08-06T15:08:38;168.65;;;160.32;;
40058;SDS011;25763;49.972;8.568;2022-08-06T15:11:03;177.02;;;168.30;;
40058;SDS011;25763;49.972;8.568;2022-08-06T15:13:29;117.97;;;112.18;;
40058;SDS011;25763;49.972;8.568;2022-08-06T15:15:54;146.10;;;138.85;;
40058;SDS011;25763;49.972;8.568;2022-08-06T15:18:20;181.25;;;172.38;;
40058;SDS011;25763;49.972;8.568;2022-08-06T15:20:46;168.88;;;160.55;;
40058;SDS011;25763;49.972;8.568;2022-08-06T15:23:11;166.77;;;158.60;;
40058;SDS011;25763;49.972;8.568;2022-08-06T15:25:37;185.35;;;176.25;;
40058;SDS011;25763;49.972;8.568;2022-08-06T15:28:03;191.20;;;181.85;;
40058;SDS011;25763;49.972;8.568;2022-08-06T15:30:28;107.53;;;102.22;;
40058;SDS011;25763;49.972;8.568;2022-08-06T15:32:54;157.52;;;149.77;;